YMEL weather

Melton Airport
Melton, Victoria, Australia

Public forecast

Using degrees Celsius for public forecast. Weather courtesy of forecast.io.

METAR (pilot weather report)

Closest report is Melbourne International Airport, 13.6 nm (25.1 km) ESE. Retrieved 2019/03/23 22:00 UTC (15 minutes ago):

YMML 232200Z 36011KT CAVOK 18/14 Q1011 NOSIG

TAF (pilot weather forecast)

Closest forecast is Melbourne International Airport, 13.6 nm (25.1 km) ESE. Retrieved 2019/03/23 18:00 UTC (4 hours ago):

TAF YMML 231708Z 2318/2424 VRB03KT CAVOK FM232000 36008KT CAVOK FM240200 35018G32KT 9999 SCT050 FM240800 34018G28KT 9999 SCT050 FM241400 32018G28KT 9999 -SHRA FEW030 BKN045 FM241800 30018G28KT 9999 -SHRA SCT040 PROB30 INTER 2407/2414 VRB30G45KT 3000 TSRA BKN018 FEW050CB